createdAt,value
2022-10-19T00:00:09.030Z,439.58
2022-10-19T00:00:19.032Z,439.55
2022-10-19T00:00:29.036Z,439.53
2022-10-19T00:00:39.034Z,439.54
2022-10-19T00:00:49.035Z,439.54
2022-10-19T00:00:59.040Z,439.55
2022-10-19T00:01:09.021Z,439.51
2022-10-19T00:01:19.041Z,439.49
2022-10-19T00:01:29.041Z,439.54
2022-10-19T00:01:39.072Z,439.50
2022-10-19T00:01:49.080Z,439.52
2022-10-19T00:01:59.086Z,439.48
2022-10-19T00:02:09.123Z,439.50
2022-10-19T00:02:19.073Z,439.47
2022-10-19T00:02:29.135Z,439.46
2022-10-19T00:02:39.048Z,439.45
2022-10-19T00:02:49.047Z,439.45
2022-10-19T00:02:59.048Z,439.43
2022-10-19T00:03:09.049Z,439.43
2022-10-19T00:03:22.303Z,439.39
2022-10-19T00:03:29.052Z,439.37
2022-10-19T00:03:39.103Z,439.39
2022-10-19T00:03:59.997Z,439.41
2022-10-19T00:04:09.090Z,439.40
2022-10-19T00:04:19.058Z,439.38
2022-10-19T00:04:29.064Z,439.39
2022-10-19T00:04:39.058Z,439.38
2022-10-19T00:04:49.056Z,439.36
2022-10-19T00:04:59.056Z,439.33
2022-10-19T00:05:09.057Z,439.31
2022-10-19T00:05:19.061Z,439.21
2022-10-19T00:05:29.058Z,439.19
2022-10-19T00:05:39.061Z,439.19
2022-10-19T00:05:49.062Z,439.17
2022-10-19T00:05:59.062Z,439.11
2022-10-19T00:06:09.066Z,439.08
2022-10-19T00:06:19.063Z,439.11
2022-10-19T00:06:29.052Z,439.08
2022-10-19T00:06:39.069Z,439.08
2022-10-19T00:06:49.067Z,439.06
2022-10-19T00:06:59.053Z,439.06
2022-10-19T00:07:09.068Z,439.03
2022-10-19T00:07:19.067Z,439.02
2022-10-19T00:07:29.092Z,438.92
2022-10-19T00:07:39.071Z,438.96
2022-10-19T00:07:49.072Z,438.91
2022-10-19T00:07:59.074Z,438.90
2022-10-19T00:08:09.072Z,438.95
2022-10-19T00:08:19.074Z,438.97
2022-10-19T00:08:29.077Z,438.92
2022-10-19T00:08:39.077Z,438.99
2022-10-19T00:08:49.081Z,438.95
2022-10-19T00:08:59.084Z,439.01
2022-10-19T00:09:09.083Z,439.01
2022-10-19T00:09:19.084Z,439.03
2022-10-19T00:09:29.083Z,439.06
2022-10-19T00:09:39.085Z,439.06
2022-10-19T00:09:49.090Z,439.09
2022-10-19T00:09:59.085Z,439.12
2022-10-19T00:10:09.087Z,439.10
2022-10-19T00:10:19.093Z,439.10
2022-10-19T00:10:29.091Z,439.17
2022-10-19T00:10:39.090Z,439.19
2022-10-19T00:10:49.094Z,439.22
2022-10-19T00:10:59.090Z,439.21
2022-10-19T00:11:09.090Z,439.21
2022-10-19T00:11:19.099Z,439.17
2022-10-19T00:11:29.091Z,439.17
2022-10-19T00:11:39.106Z,439.24
2022-10-19T00:11:49.114Z,439.18
2022-10-19T00:11:59.080Z,439.17
2022-10-19T00:12:09.096Z,439.18
2022-10-19T00:12:19.095Z,439.16
2022-10-19T00:12:29.094Z,439.19
2022-10-19T00:12:39.138Z,439.17
2022-10-19T00:12:59.115Z,439.17
2022-10-19T00:13:09.100Z,439.15
2022-10-19T00:13:19.098Z,439.16
2022-10-19T00:13:29.085Z,439.16
2022-10-19T00:13:39.099Z,439.13
2022-10-19T00:13:49.103Z,439.11
2022-10-19T00:13:59.086Z,439.11
2022-10-19T00:14:09.103Z,439.10
2022-10-19T00:14:19.105Z,439.06
2022-10-19T00:14:29.108Z,439.12
2022-10-19T00:14:39.107Z,439.12
2022-10-19T00:14:49.115Z,439.10
2022-10-19T00:14:59.109Z,439.09
2022-10-19T00:15:09.112Z,439.07
2022-10-19T00:15:19.114Z,439.07
2022-10-19T00:15:29.115Z,439.06
2022-10-19T00:15:39.114Z,439.05
2022-10-19T00:15:49.116Z,439.03
2022-10-19T00:15:59.117Z,438.99
2022-10-19T00:16:11.327Z,438.98
2022-10-19T00:16:19.121Z,438.96
2022-10-19T00:16:29.120Z,438.94
2022-10-19T00:16:39.124Z,438.91
2022-10-19T00:16:49.120Z,438.89
2022-10-19T00:16:59.124Z,438.88
2022-10-19T00:17:09.127Z,438.87
2022-10-19T00:17:19.127Z,438.82
2022-10-19T00:17:29.123Z,438.82
2022-10-19T00:17:39.127Z,438.82
2022-10-19T00:17:49.125Z,438.80
2022-10-19T00:17:59.126Z,438.76
2022-10-19T00:18:09.127Z,438.74
2022-10-19T00:18:19.128Z,438.72
2022-10-19T00:18:29.129Z,438.65
2022-10-19T00:18:39.133Z,438.67
2022-10-19T00:18:49.134Z,438.64
2022-10-19T00:18:59.134Z,438.66
2022-10-19T00:19:09.138Z,438.67
2022-10-19T00:19:19.139Z,438.67
2022-10-19T00:19:29.141Z,438.61
2022-10-19T00:19:39.139Z,438.59
2022-10-19T00:19:49.137Z,438.63
2022-10-19T00:19:59.123Z,438.65
2022-10-19T00:20:09.140Z,438.60
2022-10-19T00:20:19.138Z,438.57
2022-10-19T00:20:29.140Z,438.59
2022-10-19T00:20:39.144Z,438.61
2022-10-19T00:20:49.144Z,438.66
2022-10-19T00:20:59.141Z,438.66
2022-10-19T00:21:09.148Z,438.65
2022-10-19T00:21:19.146Z,438.62
2022-10-19T00:21:29.144Z,438.63
2022-10-19T00:21:39.184Z,438.70
2022-10-19T00:21:59.147Z,438.72
2022-10-19T00:22:11.648Z,438.74
2022-10-19T00:22:19.154Z,438.75
2022-10-19T00:22:29.152Z,438.78
2022-10-19T00:22:39.152Z,438.80
2022-10-19T00:22:49.152Z,438.83
2022-10-19T00:22:59.152Z,438.85
2022-10-19T00:23:09.165Z,438.84
2022-10-19T00:23:19.154Z,438.87
2022-10-19T00:23:29.156Z,438.84
2022-10-19T00:23:39.166Z,438.88
2022-10-19T00:23:49.154Z,438.87
2022-10-19T00:23:59.142Z,438.87
2022-10-19T00:24:09.160Z,438.86
2022-10-19T00:24:19.158Z,438.86
2022-10-19T00:24:29.158Z,438.81
2022-10-19T00:24:39.163Z,438.84
2022-10-19T00:24:49.160Z,438.88
2022-10-19T00:24:59.162Z,438.88
2022-10-19T00:25:09.170Z,438.85
2022-10-19T00:25:19.163Z,438.87
2022-10-19T00:25:29.164Z,438.88
2022-10-19T00:25:39.172Z,438.87
2022-10-19T00:25:49.190Z,438.83
2022-10-19T00:25:59.164Z,438.83
2022-10-19T00:26:09.164Z,438.87
2022-10-19T00:26:19.236Z,438.88
2022-10-19T00:26:29.167Z,438.88
2022-10-19T00:26:39.183Z,438.94
2022-10-19T00:26:49.162Z,438.88
2022-10-19T00:26:59.172Z,438.87
2022-10-19T00:27:09.172Z,438.84
2022-10-19T00:27:19.175Z,438.86
2022-10-19T00:27:29.177Z,438.85
2022-10-19T00:27:39.176Z,438.83
2022-10-19T00:27:49.174Z,438.85
2022-10-19T00:27:59.175Z,438.84
2022-10-19T00:28:09.176Z,438.83
2022-10-19T00:28:19.178Z,438.80
2022-10-19T00:28:29.232Z,438.73
2022-10-19T00:28:39.214Z,438.69
2022-10-19T00:28:49.276Z,438.72
2022-10-19T00:28:59.292Z,438.65
2022-10-19T00:29:09.242Z,438.61
2022-10-19T00:29:19.186Z,438.59
2022-10-19T00:29:29.188Z,438.57
2022-10-19T00:29:39.186Z,438.54
2022-10-19T00:29:49.191Z,438.50
2022-10-19T00:29:59.192Z,438.44
2022-10-19T00:30:09.190Z,438.39
2022-10-19T00:30:19.191Z,438.37
2022-10-19T00:30:29.195Z,438.38
2022-10-19T00:30:39.243Z,438.37
2022-10-19T00:30:59.197Z,438.31
2022-10-19T00:31:09.197Z,438.32
2022-10-19T00:31:19.198Z,438.32
2022-10-19T00:31:29.206Z,438.29
2022-10-19T00:31:39.200Z,438.21
2022-10-19T00:31:49.199Z,438.16
2022-10-19T00:31:59.204Z,438.13
2022-10-19T00:32:09.201Z,438.12
2022-10-19T00:32:19.203Z,438.13
2022-10-19T00:32:29.203Z,438.13
2022-10-19T00:32:39.205Z,438.10
2022-10-19T00:32:49.230Z,438.08
2022-10-19T00:32:59.204Z,438.09
2022-10-19T00:33:09.191Z,438.09
2022-10-19T00:33:19.206Z,438.14
2022-10-19T00:33:29.207Z,438.06
2022-10-19T00:33:39.271Z,438.13
2022-10-19T00:33:49.209Z,438.10
2022-10-19T00:33:59.208Z,438.11
2022-10-19T00:34:09.211Z,438.10
2022-10-19T00:34:19.215Z,438.08
2022-10-19T00:34:29.213Z,438.08
2022-10-19T00:34:39.211Z,438.09
2022-10-19T00:34:49.215Z,438.09
2022-10-19T00:34:59.203Z,438.09
2022-10-19T00:35:09.218Z,438.15
2022-10-19T00:35:19.219Z,438.14
2022-10-19T00:35:29.222Z,438.16
2022-10-19T00:35:39.204Z,438.13
2022-10-19T00:35:49.206Z,438.08
2022-10-19T00:35:59.211Z,438.08
2022-10-19T00:36:09.225Z,438.14
2022-10-19T00:36:19.226Z,438.15
2022-10-19T00:36:29.225Z,438.18
2022-10-19T00:36:39.230Z,438.17
2022-10-19T00:36:49.224Z,438.23
2022-10-19T00:36:59.225Z,438.21
2022-10-19T00:37:09.229Z,438.17
2022-10-19T00:37:19.226Z,438.18
2022-10-19T00:37:29.211Z,438.17
2022-10-19T00:37:39.227Z,438.14
2022-10-19T00:37:49.227Z,438.16
2022-10-19T00:37:59.232Z,438.21
2022-10-19T00:38:09.230Z,438.19
2022-10-19T00:38:19.231Z,438.14
2022-10-19T00:38:29.234Z,438.11
2022-10-19T00:38:39.236Z,438.10
2022-10-19T00:38:49.238Z,438.12
2022-10-19T00:38:59.238Z,438.15
2022-10-19T00:39:09.233Z,438.07
2022-10-19T00:39:19.235Z,438.07
2022-10-19T00:39:29.241Z,438.09
2022-10-19T00:39:39.291Z,438.16
2022-10-19T00:39:59.247Z,438.08
2022-10-19T00:40:09.241Z,438.09
2022-10-19T00:40:19.226Z,438.16
2022-10-19T00:40:29.249Z,438.16
2022-10-19T00:40:39.232Z,438.15
2022-10-19T00:40:49.244Z,438.18
2022-10-19T00:40:59.243Z,438.17
2022-10-19T00:41:09.246Z,438.20
2022-10-19T00:41:19.249Z,438.19
2022-10-19T00:41:29.250Z,438.19
2022-10-19T00:41:39.261Z,438.26
2022-10-19T00:41:49.250Z,438.26
2022-10-19T00:41:59.251Z,438.29
2022-10-19T00:42:09.250Z,438.32
2022-10-19T00:42:19.251Z,438.34
2022-10-19T00:42:29.249Z,438.38
2022-10-19T00:42:39.254Z,438.38
2022-10-19T00:42:49.253Z,438.40
2022-10-19T00:42:59.251Z,438.43
2022-10-19T00:43:09.254Z,438.46
2022-10-19T00:43:19.256Z,438.45
2022-10-19T00:43:29.255Z,438.47
2022-10-19T00:43:39.258Z,438.52
2022-10-19T00:43:49.257Z,438.51
2022-10-19T00:43:59.260Z,438.52
2022-10-19T00:44:09.258Z,438.52
2022-10-19T00:44:19.262Z,438.54
2022-10-19T00:44:29.262Z,438.53
2022-10-19T00:44:39.261Z,438.58
2022-10-19T00:44:49.262Z,438.61
2022-10-19T00:44:59.264Z,438.60
2022-10-19T00:45:09.266Z,438.59
2022-10-19T00:45:19.265Z,438.58
2022-10-19T00:45:29.265Z,438.55
2022-10-19T00:45:39.265Z,438.60
2022-10-19T00:45:49.267Z,438.56
2022-10-19T00:45:59.266Z,438.59
2022-10-19T00:46:09.269Z,438.56
2022-10-19T00:46:19.274Z,438.56
2022-10-19T00:46:29.269Z,438.53
2022-10-19T00:46:39.301Z,438.55
2022-10-19T00:46:49.261Z,438.56
2022-10-19T00:46:59.272Z,438.53
2022-10-19T00:47:09.274Z,438.54
2022-10-19T00:47:19.259Z,438.54
2022-10-19T00:47:29.276Z,438.51
2022-10-19T00:47:39.275Z,438.52
2022-10-19T00:47:49.279Z,438.52
2022-10-19T00:47:59.279Z,438.49
2022-10-19T00:48:09.279Z,438.48
2022-10-19T00:48:19.280Z,438.44
2022-10-19T00:48:29.281Z,438.39
2022-10-19T00:48:39.327Z,438.37
2022-10-19T00:49:01.085Z,438.40
2022-10-19T00:49:10.876Z,438.39
2022-10-19T00:49:19.283Z,438.41
2022-10-19T00:49:29.287Z,438.33
2022-10-19T00:49:39.286Z,438.40
2022-10-19T00:49:49.288Z,438.34
2022-10-19T00:49:59.272Z,438.37
2022-10-19T00:50:09.287Z,438.38
2022-10-19T00:50:19.289Z,438.41
2022-10-19T00:50:29.291Z,438.48
2022-10-19T00:50:39.292Z,438.43
2022-10-19T00:50:49.293Z,438.44
2022-10-19T00:50:59.296Z,438.51
2022-10-19T00:51:09.295Z,438.45
2022-10-19T00:51:19.298Z,438.47
2022-10-19T00:51:29.296Z,438.45
2022-10-19T00:51:39.295Z,438.55
2022-10-19T00:51:49.302Z,438.52
2022-10-19T00:51:59.297Z,438.54
2022-10-19T00:52:09.296Z,438.55
2022-10-19T00:52:19.304Z,438.56
2022-10-19T00:52:29.310Z,438.54
2022-10-19T00:52:39.301Z,438.53
2022-10-19T00:52:49.306Z,438.53
2022-10-19T00:52:59.288Z,438.53
2022-10-19T00:53:09.287Z,438.54
2022-10-19T00:53:19.308Z,438.53
2022-10-19T00:53:29.300Z,438.51
2022-10-19T00:53:39.304Z,438.49
2022-10-19T00:53:49.304Z,438.49
2022-10-19T00:53:59.306Z,438.51
2022-10-19T00:54:09.306Z,438.49
2022-10-19T00:54:19.306Z,438.48
2022-10-19T00:54:29.306Z,438.39
2022-10-19T00:54:39.309Z,438.39
2022-10-19T00:54:49.298Z,438.40
2022-10-19T00:54:59.308Z,438.40
2022-10-19T00:55:09.316Z,438.38
2022-10-19T00:55:19.310Z,438.38
2022-10-19T00:55:29.312Z,438.38
2022-10-19T00:55:39.312Z,438.39
2022-10-19T00:55:49.298Z,438.40
2022-10-19T00:55:59.315Z,438.36
2022-10-19T00:56:09.317Z,438.43
2022-10-19T00:56:19.316Z,438.44
2022-10-19T00:56:29.303Z,438.44
2022-10-19T00:56:39.330Z,438.46
2022-10-19T00:56:49.344Z,438.48
2022-10-19T00:56:59.314Z,438.49
2022-10-19T00:57:09.321Z,438.51
2022-10-19T00:57:19.306Z,438.51
2022-10-19T00:57:29.331Z,438.55
2022-10-19T00:57:39.356Z,438.59
2022-10-19T00:57:59.327Z,438.64
2022-10-19T00:58:09.326Z,438.59
2022-10-19T00:58:19.324Z,438.66
2022-10-19T00:58:29.327Z,438.66
2022-10-19T00:58:39.330Z,438.63
2022-10-19T00:58:49.328Z,438.65
2022-10-19T00:58:59.329Z,438.58
2022-10-19T00:59:09.333Z,438.58
2022-10-19T00:59:19.330Z,438.54
2022-10-19T00:59:29.329Z,438.52
2022-10-19T00:59:39.315Z,438.55
2022-10-19T00:59:49.336Z,438.54
2022-10-19T00:59:59.334Z,438.55
2022-10-19T01:00:09.374Z,438.56
2022-10-19T01:00:19.335Z,438.56
2022-10-19T01:00:29.318Z,438.55
2022-10-19T01:00:39.359Z,438.55
2022-10-19T01:00:49.383Z,438.56
2022-10-19T01:00:59.407Z,438.57
2022-10-19T01:01:09.474Z,438.57
2022-10-19T01:01:19.425Z,438.57
2022-10-19T01:01:29.404Z,438.58
2022-10-19T01:01:39.358Z,438.59
2022-10-19T01:01:49.343Z,438.59
2022-10-19T01:01:59.341Z,438.60
2022-10-19T01:02:09.348Z,438.61
2022-10-19T01:02:19.346Z,438.62
2022-10-19T01:02:29.348Z,438.67
2022-10-19T01:02:39.345Z,438.70
2022-10-19T01:02:49.346Z,438.71
2022-10-19T01:02:59.351Z,438.73
2022-10-19T01:03:09.347Z,438.76
2022-10-19T01:03:19.349Z,438.78
2022-10-19T01:03:29.349Z,438.82
2022-10-19T01:03:39.356Z,438.88
2022-10-19T01:03:49.352Z,438.91
2022-10-19T01:03:59.352Z,438.89
2022-10-19T01:04:09.363Z,438.92
2022-10-19T01:04:19.355Z,438.98
2022-10-19T01:04:29.355Z,439.00
2022-10-19T01:04:39.367Z,439.00
2022-10-19T01:04:49.342Z,439.00
2022-10-19T01:04:59.355Z,439.02
2022-10-19T01:05:09.357Z,439.01
2022-10-19T01:05:19.360Z,439.01
2022-10-19T01:05:29.359Z,439.03
2022-10-19T01:05:39.358Z,439.02
2022-10-19T01:05:49.367Z,439.05
2022-10-19T01:05:59.363Z,439.05
2022-10-19T01:06:09.364Z,439.06
2022-10-19T01:06:19.363Z,439.05
2022-10-19T01:06:29.362Z,439.06
2022-10-19T01:06:39.431Z,439.03
2022-10-19T01:06:59.366Z,438.94
2022-10-19T01:07:09.377Z,438.90
2022-10-19T01:07:19.367Z,438.82
2022-10-19T01:07:29.370Z,438.79
2022-10-19T01:07:39.370Z,438.83
2022-10-19T01:07:49.370Z,438.76
2022-10-19T01:07:59.371Z,438.78
2022-10-19T01:08:09.373Z,438.69
2022-10-19T01:08:19.371Z,438.68
2022-10-19T01:08:29.373Z,438.68
2022-10-19T01:08:39.374Z,438.62
2022-10-19T01:08:49.375Z,438.58
2022-10-19T01:08:59.377Z,438.60
2022-10-19T01:09:09.378Z,438.56
2022-10-19T01:09:19.384Z,438.54
2022-10-19T01:09:29.376Z,438.52
2022-10-19T01:09:39.377Z,438.47
2022-10-19T01:09:49.379Z,438.47
2022-10-19T01:09:59.384Z,438.50
2022-10-19T01:10:09.388Z,438.42
2022-10-19T01:10:19.382Z,438.43
2022-10-19T01:10:29.367Z,438.43
2022-10-19T01:10:39.384Z,438.48
2022-10-19T01:10:49.383Z,438.46
2022-10-19T01:10:59.383Z,438.45
2022-10-19T01:11:09.391Z,438.48
2022-10-19T01:11:19.385Z,438.48
2022-10-19T01:11:29.385Z,438.50
2022-10-19T01:11:39.401Z,438.49
2022-10-19T01:11:49.375Z,438.48
2022-10-19T01:11:59.392Z,438.49
2022-10-19T01:12:09.423Z,438.44
2022-10-19T01:12:19.395Z,438.44
2022-10-19T01:12:29.396Z,438.44
2022-10-19T01:12:39.396Z,438.43
2022-10-19T01:12:49.397Z,438.47
2022-10-19T01:12:59.397Z,438.46
2022-10-19T01:13:09.408Z,438.47
2022-10-19T01:13:19.400Z,438.47
2022-10-19T01:13:29.398Z,438.47
2022-10-19T01:13:39.400Z,438.46
2022-10-19T01:13:49.400Z,438.41
2022-10-19T01:13:59.387Z,438.47
2022-10-19T01:14:09.403Z,438.47
2022-10-19T01:14:19.400Z,438.45
2022-10-19T01:14:29.405Z,438.36
2022-10-19T01:14:39.401Z,438.31
2022-10-19T01:14:49.388Z,438.31
2022-10-19T01:14:59.408Z,438.26
2022-10-19T01:15:09.402Z,438.29
2022-10-19T01:15:19.405Z,438.26
2022-10-19T01:15:29.407Z,438.22
2022-10-19T01:15:39.407Z,438.13
2022-10-19T01:15:49.451Z,438.10
2022-10-19T01:15:59.416Z,438.06
2022-10-19T01:16:09.411Z,438.02
2022-10-19T01:16:19.412Z,437.99
2022-10-19T01:16:29.418Z,438.03
2022-10-19T01:16:39.424Z,438.02
2022-10-19T01:16:49.413Z,438.04
2022-10-19T01:16:59.413Z,437.98
2022-10-19T01:17:09.399Z,437.99
2022-10-19T01:17:19.415Z,438.07
2022-10-19T01:17:29.414Z,438.07
2022-10-19T01:17:39.418Z,438.11
2022-10-19T01:17:49.424Z,438.13
2022-10-19T01:17:59.417Z,438.11
2022-10-19T01:18:09.418Z,438.12
2022-10-19T01:18:19.405Z,438.11
2022-10-19T01:18:29.419Z,438.07
2022-10-19T01:18:39.420Z,438.12
2022-10-19T01:18:49.419Z,438.08
2022-10-19T01:18:59.422Z,438.02
2022-10-19T01:19:09.421Z,438.03
2022-10-19T01:19:19.423Z,438.01
2022-10-19T01:19:29.423Z,437.99
2022-10-19T01:19:39.425Z,437.97
2022-10-19T01:19:49.428Z,438.02
2022-10-19T01:19:59.428Z,438.05
2022-10-19T01:20:09.427Z,438.07
2022-10-19T01:20:19.428Z,438.06
2022-10-19T01:20:29.415Z,438.13
2022-10-19T01:20:39.414Z,438.11
2022-10-19T01:20:49.417Z,438.06
2022-10-19T01:20:59.431Z,438.09
2022-10-19T01:21:09.435Z,438.19
2022-10-19T01:21:19.432Z,438.21
2022-10-19T01:21:29.434Z,438.17
2022-10-19T01:21:39.464Z,438.25
2022-10-19T01:21:49.435Z,438.29
2022-10-19T01:21:59.435Z,438.34
2022-10-19T01:22:09.436Z,438.40
2022-10-19T01:22:19.436Z,438.47
2022-10-19T01:22:29.436Z,438.56
2022-10-19T01:22:39.451Z,438.62
2022-10-19T01:22:49.437Z,438.58
2022-10-19T01:22:59.438Z,438.66
2022-10-19T01:23:09.440Z,438.67
2022-10-19T01:23:19.438Z,438.65
2022-10-19T01:23:29.440Z,438.69
2022-10-19T01:23:39.441Z,438.67
2022-10-19T01:23:49.443Z,438.70
2022-10-19T01:23:59.441Z,438.75
2022-10-19T01:24:09.442Z,438.70
2022-10-19T01:24:19.448Z,438.75
2022-10-19T01:24:29.446Z,438.81
2022-10-19T01:24:40.689Z,438.84
2022-10-19T01:24:49.521Z,438.91
2022-10-19T01:24:59.451Z,438.92
2022-10-19T01:25:09.450Z,438.99
2022-10-19T01:25:19.450Z,439.12
2022-10-19T01:25:29.450Z,439.20
2022-10-19T01:25:39.452Z,439.28
2022-10-19T01:25:49.456Z,439.33
2022-10-19T01:25:59.452Z,439.39
2022-10-19T01:26:09.455Z,439.46
2022-10-19T01:26:19.456Z,439.51
2022-10-19T01:26:29.459Z,439.53
2022-10-19T01:26:39.460Z,439.61
2022-10-19T01:26:49.466Z,439.68
2022-10-19T01:26:59.461Z,439.80
2022-10-19T01:27:09.458Z,439.86
2022-10-19T01:27:19.460Z,439.92
2022-10-19T01:27:29.501Z,439.98
2022-10-19T01:27:39.464Z,440.03
2022-10-19T01:27:49.472Z,440.08
2022-10-19T01:27:59.466Z,440.19
2022-10-19T01:28:09.467Z,440.18
2022-10-19T01:28:19.473Z,440.21
2022-10-19T01:28:29.491Z,440.26
2022-10-19T01:28:39.537Z,440.33
2022-10-19T01:28:49.514Z,440.36
2022-10-19T01:28:59.531Z,440.43
2022-10-19T01:29:09.571Z,440.46
2022-10-19T01:29:19.474Z,440.50
2022-10-19T01:29:29.475Z,440.53
2022-10-19T01:29:39.477Z,440.57
2022-10-19T01:29:49.477Z,440.56
2022-10-19T01:29:59.479Z,440.56
2022-10-19T01:30:09.478Z,440.63
2022-10-19T01:30:19.480Z,440.61
2022-10-19T01:30:29.481Z,440.61
2022-10-19T01:30:39.483Z,440.63
2022-10-19T01:30:49.484Z,440.63
2022-10-19T01:30:59.489Z,440.67
2022-10-19T01:31:09.487Z,440.62
2022-10-19T01:31:19.485Z,440.65
2022-10-19T01:31:29.486Z,440.69
2022-10-19T01:31:39.527Z,440.71
2022-10-19T01:31:49.485Z,440.64
2022-10-19T01:31:59.489Z,440.66
2022-10-19T01:32:09.488Z,440.67
2022-10-19T01:32:19.487Z,440.73
2022-10-19T01:32:29.491Z,440.72
2022-10-19T01:32:39.491Z,440.76
2022-10-19T01:32:49.492Z,440.73
2022-10-19T01:32:59.492Z,440.75
2022-10-19T01:33:09.496Z,440.74
2022-10-19T01:33:19.492Z,440.72
2022-10-19T01:33:29.495Z,440.70
2022-10-19T01:33:39.497Z,440.72
2022-10-19T01:33:49.523Z,440.73
2022-10-19T01:33:59.495Z,440.75
2022-10-19T01:34:09.503Z,440.71
2022-10-19T01:34:19.500Z,440.70
2022-10-19T01:34:29.497Z,440.69
2022-10-19T01:34:39.497Z,440.76
2022-10-19T01:34:49.499Z,440.77
2022-10-19T01:34:59.499Z,440.78
2022-10-19T01:35:09.497Z,440.84
2022-10-19T01:35:19.497Z,440.80
2022-10-19T01:35:29.502Z,440.84
2022-10-19T01:35:39.507Z,440.83
2022-10-19T01:35:49.499Z,440.83
2022-10-19T01:35:59.488Z,440.84
2022-10-19T01:36:09.504Z,440.83
2022-10-19T01:36:19.502Z,440.83
2022-10-19T01:36:29.505Z,440.81
2022-10-19T01:36:39.558Z,440.79
2022-10-19T01:36:49.509Z,440.69
2022-10-19T01:36:59.512Z,440.67
2022-10-19T01:37:09.539Z,440.70
2022-10-19T01:37:19.508Z,440.66
2022-10-19T01:37:29.507Z,440.64
2022-10-19T01:37:39.511Z,440.53
2022-10-19T01:37:49.509Z,440.51
2022-10-19T01:37:59.510Z,440.48
2022-10-19T01:38:09.517Z,440.44
2022-10-19T01:38:19.510Z,440.42
2022-10-19T01:38:29.516Z,440.36
2022-10-19T01:38:39.512Z,440.32
2022-10-19T01:38:49.512Z,440.36
2022-10-19T01:38:59.515Z,440.28
2022-10-19T01:39:09.517Z,440.25
2022-10-19T01:39:19.516Z,440.17
2022-10-19T01:39:29.514Z,440.14
2022-10-19T01:39:39.520Z,440.13
2022-10-19T01:39:50.025Z,440.08
2022-10-19T01:39:59.516Z,440.09
2022-10-19T01:40:09.520Z,440.03
2022-10-19T01:40:19.519Z,440.01
2022-10-19T01:40:29.521Z,439.96
2022-10-19T01:40:39.519Z,439.96
2022-10-19T01:40:49.523Z,439.94
2022-10-19T01:40:59.523Z,439.93
2022-10-19T01:41:09.526Z,439.92
2022-10-19T01:41:19.525Z,439.90
2022-10-19T01:41:29.526Z,439.91
2022-10-19T01:41:39.531Z,439.88
2022-10-19T01:41:49.532Z,439.90
2022-10-19T01:41:59.527Z,439.90
2022-10-19T01:42:09.529Z,439.92
2022-10-19T01:42:19.529Z,439.90
2022-10-19T01:42:29.529Z,439.91
2022-10-19T01:42:39.532Z,439.87
2022-10-19T01:42:49.652Z,439.90
2022-10-19T01:42:59.548Z,439.87
2022-10-19T01:43:09.535Z,439.90
2022-10-19T01:43:19.535Z,439.92
2022-10-19T01:43:29.536Z,439.92
2022-10-19T01:43:39.537Z,439.90
2022-10-19T01:43:49.522Z,439.88
2022-10-19T01:43:59.537Z,439.87
2022-10-19T01:44:09.538Z,439.84
2022-10-19T01:44:19.540Z,439.82
2022-10-19T01:44:29.525Z,439.82
2022-10-19T01:44:39.539Z,439.75
2022-10-19T01:44:49.569Z,439.76
2022-10-19T01:44:59.527Z,439.75
2022-10-19T01:45:09.544Z,439.68
2022-10-19T01:45:19.547Z,439.72
2022-10-19T01:45:29.546Z,439.70
2022-10-19T01:45:39.541Z,439.70
2022-10-19T01:45:49.543Z,439.69
2022-10-19T01:45:59.543Z,439.66
2022-10-19T01:46:09.544Z,439.61
2022-10-19T01:46:19.546Z,439.58
2022-10-19T01:46:29.546Z,439.62
2022-10-19T01:46:39.550Z,439.63
2022-10-19T01:46:49.551Z,439.63
2022-10-19T01:46:59.548Z,439.59
2022-10-19T01:47:09.546Z,439.59
2022-10-19T01:47:19.547Z,439.59
2022-10-19T01:47:29.551Z,439.61
2022-10-19T01:47:39.551Z,439.56
2022-10-19T01:47:49.549Z,439.54
2022-10-19T01:47:59.557Z,439.55
2022-10-19T01:48:09.553Z,439.49
2022-10-19T01:48:19.556Z,439.48
2022-10-19T01:48:29.565Z,439.48
2022-10-19T01:48:39.557Z,439.47
2022-10-19T01:48:49.558Z,439.45
2022-10-19T01:48:59.558Z,439.48
2022-10-19T01:49:09.560Z,439.42
2022-10-19T01:49:19.562Z,439.44
2022-10-19T01:49:29.560Z,439.37
2022-10-19T01:49:39.568Z,439.32
2022-10-19T01:49:49.566Z,439.30
2022-10-19T01:49:59.563Z,439.26
2022-10-19T01:50:09.566Z,439.27
2022-10-19T01:50:19.568Z,439.23
2022-10-19T01:50:29.559Z,439.23
2022-10-19T01:50:39.570Z,439.24
2022-10-19T01:50:49.567Z,439.24
2022-10-19T01:50:59.577Z,439.20
2022-10-19T01:51:09.568Z,439.34
2022-10-19T01:51:19.571Z,439.31
2022-10-19T01:51:29.579Z,439.28
2022-10-19T01:51:39.572Z,439.33
2022-10-19T01:51:49.628Z,439.31
2022-10-19T01:51:59.626Z,439.33
2022-10-19T01:52:09.586Z,439.35
2022-10-19T01:52:19.578Z,439.36
2022-10-19T01:52:29.575Z,439.34
2022-10-19T01:52:39.581Z,439.38
2022-10-19T01:52:49.610Z,439.39
2022-10-19T01:52:59.577Z,439.33
2022-10-19T01:53:09.577Z,439.34
2022-10-19T01:53:19.578Z,439.40
2022-10-19T01:53:29.580Z,439.36
2022-10-19T01:53:39.580Z,439.35
2022-10-19T01:53:49.581Z,439.34
2022-10-19T01:53:59.587Z,439.40
2022-10-19T01:54:09.583Z,439.40
2022-10-19T01:54:19.583Z,439.40
2022-10-19T01:54:29.585Z,439.43
2022-10-19T01:54:39.584Z,439.37
2022-10-19T01:54:49.583Z,439.37
2022-10-19T01:54:59.587Z,439.37
2022-10-19T01:55:09.589Z,439.34
2022-10-19T01:55:19.590Z,439.39
2022-10-19T01:55:29.591Z,439.36
2022-10-19T01:55:39.577Z,439.34
2022-10-19T01:55:49.593Z,439.35
2022-10-19T01:55:59.593Z,439.37
2022-10-19T01:56:09.593Z,439.38
2022-10-19T01:56:19.594Z,439.38
2022-10-19T01:56:29.579Z,439.34
2022-10-19T01:56:39.598Z,439.39
2022-10-19T01:56:49.639Z,439.40
2022-10-19T01:56:59.599Z,439.37
2022-10-19T01:57:09.597Z,439.40
2022-10-19T01:57:19.598Z,439.42
2022-10-19T01:57:29.596Z,439.45
2022-10-19T01:57:39.602Z,439.52
2022-10-19T01:57:49.601Z,439.51
2022-10-19T01:57:59.601Z,439.61
2022-10-19T01:58:09.812Z,439.66
2022-10-19T01:58:19.602Z,439.74
2022-10-19T01:58:29.607Z,439.74
2022-10-19T01:58:39.604Z,439.78
2022-10-19T01:58:49.604Z,439.89
2022-10-19T01:58:59.606Z,439.92
2022-10-19T01:59:09.607Z,439.88
2022-10-19T01:59:19.612Z,439.94
2022-10-19T01:59:29.611Z,440.02
2022-10-19T01:59:39.609Z,440.07
2022-10-19T01:59:49.622Z,440.05
2022-10-19T01:59:59.611Z,440.06
2022-10-19T02:00:09.616Z,440.06
2022-10-19T02:00:19.613Z,440.05
2022-10-19T02:00:29.614Z,440.10
2022-10-19T02:00:39.641Z,440.10
2022-10-19T02:00:49.780Z,440.14
2022-10-19T02:00:59.744Z,440.19
2022-10-19T02:01:12.637Z,440.23
2022-10-19T02:01:19.621Z,440.26
2022-10-19T02:01:29.618Z,440.28
2022-10-19T02:01:39.619Z,440.30
2022-10-19T02:01:49.625Z,440.33
2022-10-19T02:01:59.620Z,440.37
2022-10-19T02:02:09.621Z,440.37
2022-10-19T02:02:19.629Z,440.37
2022-10-19T02:02:29.623Z,440.39
2022-10-19T02:02:39.625Z,440.37
2022-10-19T02:02:49.629Z,440.37
2022-10-19T02:02:59.626Z,440.30
2022-10-19T02:03:09.624Z,440.28
2022-10-19T02:03:19.628Z,440.31
2022-10-19T02:03:29.626Z,440.31
2022-10-19T02:03:39.629Z,440.37
2022-10-19T02:03:49.625Z,440.33
2022-10-19T02:03:59.645Z,440.36
2022-10-19T02:04:09.631Z,440.37
2022-10-19T02:04:19.633Z,440.30
2022-10-19T02:04:29.630Z,440.29
2022-10-19T02:04:39.630Z,440.30
2022-10-19T02:04:49.629Z,440.29
2022-10-19T02:04:59.632Z,440.33
2022-10-19T02:05:09.619Z,440.30
2022-10-19T02:05:19.637Z,440.29
2022-10-19T02:05:29.638Z,440.24
2022-10-19T02:05:39.646Z,440.28
2022-10-19T02:05:49.636Z,440.24
2022-10-19T02:05:59.640Z,440.22
2022-10-19T02:06:09.641Z,440.22